sensor_id;sensor_type;location;lat;lon;timestamp;P1;durP1;ratioP1;P2;durP2;ratioP2
62863;SDS011;48954;59.950;11.014;2022-12-19T00:00:05;39.30;;;13.20;;
62863;SDS011;48954;59.950;11.014;2022-12-19T00:02:34;20.60;;;8.10;;
62863;SDS011;48954;59.950;11.014;2022-12-19T00:05:04;15.30;;;6.70;;
62863;SDS011;48954;59.950;11.014;2022-12-19T00:07:33;18.00;;;7.20;;
62863;SDS011;48954;59.950;11.014;2022-12-19T00:10:16;33.20;;;12.70;;
62863;SDS011;48954;59.950;11.014;2022-12-19T00:12:45;15.60;;;6.40;;
62863;SDS011;48954;59.950;11.014;2022-12-19T00:15:17;14.00;;;5.50;;
62863;SDS011;48954;59.950;11.014;2022-12-19T00:17:46;16.80;;;6.60;;
62863;SDS011;48954;59.950;11.014;2022-12-19T00:20:14;9.90;;;4.60;;
62863;SDS011;48954;59.950;11.014;2022-12-19T00:22:54;14.10;;;6.40;;
62863;SDS011;48954;59.950;11.014;2022-12-19T00:25:21;8.40;;;3.50;;
62863;SDS011;48954;59.950;11.014;2022-12-19T00:28:01;7.90;;;3.60;;
62863;SDS011;48954;59.950;11.014;2022-12-19T00:30:33;10.60;;;4.80;;
62863;SDS011;48954;59.950;11.014;2022-12-19T00:33:13;12.40;;;5.30;;
62863;SDS011;48954;59.950;11.014;2022-12-19T00:36:01;14.70;;;5.40;;
62863;SDS011;48954;59.950;11.014;2022-12-19T00:38:38;10.70;;;3.80;;
62863;SDS011;48954;59.950;11.014;2022-12-19T00:41:13;10.80;;;4.10;;
62863;SDS011;48954;59.950;11.014;2022-12-19T00:43:46;12.20;;;5.90;;
62863;SDS011;48954;59.950;11.014;2022-12-19T00:46:31;14.50;;;4.80;;
62863;SDS011;48954;59.950;11.014;2022-12-19T00:49:11;14.60;;;5.70;;
62863;SDS011;48954;59.950;11.014;2022-12-19T00:51:40;13.40;;;5.50;;
62863;SDS011;48954;59.950;11.014;2022-12-19T00:54:09;9.30;;;3.60;;
62863;SDS011;48954;59.950;11.014;2022-12-19T00:56:38;9.80;;;4.30;;
62863;SDS011;48954;59.950;11.014;2022-12-19T00:59:08;11.50;;;4.30;;
62863;SDS011;48954;59.950;11.014;2022-12-19T01:01:51;12.50;;;5.10;;
62863;SDS011;48954;59.950;11.014;2022-12-19T01:04:19;12.40;;;4.90;;
62863;SDS011;48954;59.950;11.014;2022-12-19T01:06:55;15.70;;;7.20;;
62863;SDS011;48954;59.950;11.014;2022-12-19T01:09:26;7.60;;;4.00;;
62863;SDS011;48954;59.950;11.014;2022-12-19T01:11:58;13.90;;;5.00;;
62863;SDS011;48954;59.950;11.014;2022-12-19T01:14:38;15.50;;;5.90;;
62863;SDS011;48954;59.950;11.014;2022-12-19T01:17:07;8.70;;;4.40;;
62863;SDS011;48954;59.950;11.014;2022-12-19T01:19:51;4.90;;;2.20;;
62863;SDS011;48954;59.950;11.014;2022-12-19T01:22:23;10.70;;;4.60;;
62863;SDS011;48954;59.950;11.014;2022-12-19T01:24:58;15.60;;;6.30;;
62863;SDS011;48954;59.950;11.014;2022-12-19T01:27:28;16.10;;;6.70;;
62863;SDS011;48954;59.950;11.014;2022-12-19T01:29:58;11.00;;;3.60;;
62863;SDS011;48954;59.950;11.014;2022-12-19T01:32:26;10.50;;;4.80;;
62863;SDS011;48954;59.950;11.014;2022-12-19T01:35:09;12.80;;;5.20;;
62863;SDS011;48954;59.950;11.014;2022-12-19T01:37:36;15.60;;;5.50;;
62863;SDS011;48954;59.950;11.014;2022-12-19T01:40:17;6.90;;;3.20;;
62863;SDS011;48954;59.950;11.014;2022-12-19T01:43:00;13.90;;;5.10;;
62863;SDS011;48954;59.950;11.014;2022-12-19T01:45:34;11.20;;;4.50;;
62863;SDS011;48954;59.950;11.014;2022-12-19T01:48:27;9.30;;;4.00;;
62863;SDS011;48954;59.950;11.014;2022-12-19T01:51:13;5.70;;;2.40;;
62863;SDS011;48954;59.950;11.014;2022-12-19T01:53:49;9.30;;;4.30;;
62863;SDS011;48954;59.950;11.014;2022-12-19T01:56:45;7.40;;;4.40;;
62863;SDS011;48954;59.950;11.014;2022-12-19T01:59:25;14.50;;;5.40;;
62863;SDS011;48954;59.950;11.014;2022-12-19T02:02:34;5.90;;;2.20;;
62863;SDS011;48954;59.950;11.014;2022-12-19T02:05:04;6.90;;;2.80;;
62863;SDS011;48954;59.950;11.014;2022-12-19T02:07:45;13.50;;;6.20;;
62863;SDS011;48954;59.950;11.014;2022-12-19T02:10:28;12.30;;;4.80;;
62863;SDS011;48954;59.950;11.014;2022-12-19T02:13:00;18.60;;;7.70;;
62863;SDS011;48954;59.950;11.014;2022-12-19T02:15:28;12.00;;;4.80;;
62863;SDS011;48954;59.950;11.014;2022-12-19T02:18:21;12.80;;;5.50;;
62863;SDS011;48954;59.950;11.014;2022-12-19T02:21:02;14.70;;;6.50;;
62863;SDS011;48954;59.950;11.014;2022-12-19T02:24:07;15.00;;;6.30;;
62863;SDS011;48954;59.950;11.014;2022-12-19T02:33:04;7.20;;;3.90;;
62863;SDS011;48954;59.950;11.014;2022-12-19T02:36:06;6.80;;;3.50;;
62863;SDS011;48954;59.950;11.014;2022-12-19T02:38:57;16.50;;;6.30;;
62863;SDS011;48954;59.950;11.014;2022-12-19T02:47:14;11.40;;;5.40;;
62863;SDS011;48954;59.950;11.014;2022-12-19T02:49:51;17.10;;;7.60;;
62863;SDS011;48954;59.950;11.014;2022-12-19T02:55:10;14.60;;;6.00;;
62863;SDS011;48954;59.950;11.014;2022-12-19T03:00:58;18.10;;;8.20;;
62863;SDS011;48954;59.950;11.014;2022-12-19T03:07:04;12.80;;;5.40;;
62863;SDS011;48954;59.950;11.014;2022-12-19T03:10:34;12.40;;;5.50;;
62863;SDS011;48954;59.950;11.014;2022-12-19T03:13:07;12.30;;;6.00;;
62863;SDS011;48954;59.950;11.014;2022-12-19T03:15:39;10.00;;;4.40;;
62863;SDS011;48954;59.950;11.014;2022-12-19T03:18:15;12.80;;;6.30;;
62863;SDS011;48954;59.950;11.014;2022-12-19T03:23:47;10.30;;;5.00;;
62863;SDS011;48954;59.950;11.014;2022-12-19T03:26:51;11.10;;;5.70;;
62863;SDS011;48954;59.950;11.014;2022-12-19T03:32:41;20.50;;;9.50;;
62863;SDS011;48954;59.950;11.014;2022-12-19T03:35:26;15.70;;;8.20;;
62863;SDS011;48954;59.950;11.014;2022-12-19T03:40:52;16.30;;;6.80;;
62863;SDS011;48954;59.950;11.014;2022-12-19T03:43:34;16.40;;;7.60;;
62863;SDS011;48954;59.950;11.014;2022-12-19T03:46:21;10.40;;;4.70;;
62863;SDS011;48954;59.950;11.014;2022-12-19T03:49:06;8.90;;;4.50;;
62863;SDS011;48954;59.950;11.014;2022-12-19T03:55:03;13.20;;;5.70;;
62863;SDS011;48954;59.950;11.014;2022-12-19T03:57:51;12.40;;;5.80;;
62863;SDS011;48954;59.950;11.014;2022-12-19T04:00:34;13.40;;;6.60;;
62863;SDS011;48954;59.950;11.014;2022-12-19T04:03:12;14.50;;;6.80;;
62863;SDS011;48954;59.950;11.014;2022-12-19T04:05:52;18.30;;;8.30;;
62863;SDS011;48954;59.950;11.014;2022-12-19T04:08:41;11.60;;;5.40;;
62863;SDS011;48954;59.950;11.014;2022-12-19T04:11:25;8.80;;;4.00;;
62863;SDS011;48954;59.950;11.014;2022-12-19T04:14:00;7.50;;;4.40;;
62863;SDS011;48954;59.950;11.014;2022-12-19T04:25:39;14.00;;;6.80;;
62863;SDS011;48954;59.950;11.014;2022-12-19T04:31:37;12.50;;;6.30;;
62863;SDS011;48954;59.950;11.014;2022-12-19T04:34:19;10.80;;;5.20;;
62863;SDS011;48954;59.950;11.014;2022-12-19T04:37:00;11.00;;;5.70;;
62863;SDS011;48954;59.950;11.014;2022-12-19T04:39:42;13.20;;;6.00;;
62863;SDS011;48954;59.950;11.014;2022-12-19T04:42:23;10.10;;;4.70;;
62863;SDS011;48954;59.950;11.014;2022-12-19T04:45:04;8.50;;;3.60;;
62863;SDS011;48954;59.950;11.014;2022-12-19T04:47:47;7.80;;;3.50;;
62863;SDS011;48954;59.950;11.014;2022-12-19T04:50:31;15.70;;;6.50;;
62863;SDS011;48954;59.950;11.014;2022-12-19T04:53:12;16.00;;;6.10;;
62863;SDS011;48954;59.950;11.014;2022-12-19T04:56:03;9.20;;;4.20;;
62863;SDS011;48954;59.950;11.014;2022-12-19T04:58:47;16.40;;;6.40;;
62863;SDS011;48954;59.950;11.014;2022-12-19T05:01:34;11.20;;;5.40;;
62863;SDS011;48954;59.950;11.014;2022-12-19T05:04:15;9.30;;;3.50;;
62863;SDS011;48954;59.950;11.014;2022-12-19T05:06:56;5.60;;;3.00;;
62863;SDS011;48954;59.950;11.014;2022-12-19T05:09:42;8.00;;;3.90;;
62863;SDS011;48954;59.950;11.014;2022-12-19T05:12:20;11.80;;;4.30;;
62863;SDS011;48954;59.950;11.014;2022-12-19T05:14:48;17.80;;;5.60;;
62863;SDS011;48954;59.950;11.014;2022-12-19T05:17:24;9.60;;;3.20;;
62863;SDS011;48954;59.950;11.014;2022-12-19T05:20:10;10.00;;;4.10;;
62863;SDS011;48954;59.950;11.014;2022-12-19T05:22:51;8.00;;;3.00;;
62863;SDS011;48954;59.950;11.014;2022-12-19T05:25:20;8.30;;;3.60;;
62863;SDS011;48954;59.950;11.014;2022-12-19T05:27:48;10.20;;;3.60;;
62863;SDS011;48954;59.950;11.014;2022-12-19T05:30:17;8.10;;;3.20;;
62863;SDS011;48954;59.950;11.014;2022-12-19T05:32:49;12.50;;;5.70;;
62863;SDS011;48954;59.950;11.014;2022-12-19T05:35:30;9.00;;;4.10;;
62863;SDS011;48954;59.950;11.014;2022-12-19T05:38:07;10.40;;;4.60;;
62863;SDS011;48954;59.950;11.014;2022-12-19T05:40:38;17.50;;;7.90;;
62863;SDS011;48954;59.950;11.014;2022-12-19T05:43:07;14.40;;;6.30;;
62863;SDS011;48954;59.950;11.014;2022-12-19T05:45:37;14.80;;;4.20;;
62863;SDS011;48954;59.950;11.014;2022-12-19T05:48:05;9.30;;;3.80;;
62863;SDS011;48954;59.950;11.014;2022-12-19T05:53:21;9.80;;;5.00;;
62863;SDS011;48954;59.950;11.014;2022-12-19T05:56:01;17.70;;;7.50;;
62863;SDS011;48954;59.950;11.014;2022-12-19T05:58:50;19.60;;;7.30;;
62863;SDS011;48954;59.950;11.014;2022-12-19T06:01:26;20.60;;;6.90;;
62863;SDS011;48954;59.950;11.014;2022-12-19T06:04:02;18.40;;;6.00;;
62863;SDS011;48954;59.950;11.014;2022-12-19T06:06:29;19.10;;;6.60;;
62863;SDS011;48954;59.950;11.014;2022-12-19T06:09:01;13.80;;;4.00;;
62863;SDS011;48954;59.950;11.014;2022-12-19T06:11:28;11.20;;;4.70;;
62863;SDS011;48954;59.950;11.014;2022-12-19T06:13:58;14.90;;;5.70;;
62863;SDS011;48954;59.950;11.014;2022-12-19T06:16:28;18.00;;;5.50;;
62863;SDS011;48954;59.950;11.014;2022-12-19T06:18:54;31.30;;;8.70;;
62863;SDS011;48954;59.950;11.014;2022-12-19T06:21:21;30.30;;;9.20;;
62863;SDS011;48954;59.950;11.014;2022-12-19T06:23:51;16.80;;;5.20;;
62863;SDS011;48954;59.950;11.014;2022-12-19T06:26:27;18.30;;;6.00;;
62863;SDS011;48954;59.950;11.014;2022-12-19T06:29:10;19.20;;;5.60;;
62863;SDS011;48954;59.950;11.014;2022-12-19T06:31:59;9.70;;;3.50;;
62863;SDS011;48954;59.950;11.014;2022-12-19T06:34:35;11.10;;;3.70;;
62863;SDS011;48954;59.950;11.014;2022-12-19T06:37:08;13.70;;;4.50;;
62863;SDS011;48954;59.950;11.014;2022-12-19T06:42:52;18.60;;;6.80;;
62863;SDS011;48954;59.950;11.014;2022-12-19T06:45:36;17.90;;;5.80;;
62863;SDS011;48954;59.950;11.014;2022-12-19T06:48:22;20.80;;;7.50;;
62863;SDS011;48954;59.950;11.014;2022-12-19T06:51:06;22.30;;;6.90;;
62863;SDS011;48954;59.950;11.014;2022-12-19T06:53:43;12.10;;;4.20;;
62863;SDS011;48954;59.950;11.014;2022-12-19T06:56:32;13.50;;;4.20;;
62863;SDS011;48954;59.950;11.014;2022-12-19T07:02:41;18.40;;;5.10;;
62863;SDS011;48954;59.950;11.014;2022-12-19T07:05:27;25.30;;;5.80;;
62863;SDS011;48954;59.950;11.014;2022-12-19T07:08:25;18.50;;;4.40;;
62863;SDS011;48954;59.950;11.014;2022-12-19T07:11:09;26.30;;;6.40;;
62863;SDS011;48954;59.950;11.014;2022-12-19T07:14:10;28.80;;;8.50;;
62863;SDS011;48954;59.950;11.014;2022-12-19T07:16:54;21.40;;;6.10;;
62863;SDS011;48954;59.950;11.014;2022-12-19T07:19:35;32.40;;;9.40;;
62863;SDS011;48954;59.950;11.014;2022-12-19T07:22:16;36.60;;;10.70;;
62863;SDS011;48954;59.950;11.014;2022-12-19T07:24:47;28.00;;;8.50;;
62863;SDS011;48954;59.950;11.014;2022-12-19T07:27:21;24.80;;;7.90;;
62863;SDS011;48954;59.950;11.014;2022-12-19T07:30:00;22.30;;;6.40;;
62863;SDS011;48954;59.950;11.014;2022-12-19T07:32:42;34.60;;;7.80;;
62863;SDS011;48954;59.950;11.014;2022-12-19T07:35:25;32.80;;;8.30;;
62863;SDS011;48954;59.950;11.014;2022-12-19T07:38:06;28.10;;;7.40;;
62863;SDS011;48954;59.950;11.014;2022-12-19T07:40:48;24.60;;;7.30;;
62863;SDS011;48954;59.950;11.014;2022-12-19T07:43:28;36.00;;;9.40;;
62863;SDS011;48954;59.950;11.014;2022-12-19T07:45:57;29.70;;;9.20;;
62863;SDS011;48954;59.950;11.014;2022-12-19T07:48:25;29.60;;;9.00;;
62863;SDS011;48954;59.950;11.014;2022-12-19T07:51:05;22.00;;;6.30;;
62863;SDS011;48954;59.950;11.014;2022-12-19T07:53:38;38.40;;;8.20;;
62863;SDS011;48954;59.950;11.014;2022-12-19T07:56:06;29.70;;;9.60;;
62863;SDS011;48954;59.950;11.014;2022-12-19T07:58:33;28.90;;;7.70;;
62863;SDS011;48954;59.950;11.014;2022-12-19T08:01:01;17.80;;;5.00;;
62863;SDS011;48954;59.950;11.014;2022-12-19T08:03:29;23.30;;;6.50;;
62863;SDS011;48954;59.950;11.014;2022-12-19T08:06:10;22.00;;;4.80;;
62863;SDS011;48954;59.950;11.014;2022-12-19T08:15:25;27.30;;;7.40;;
62863;SDS011;48954;59.950;11.014;2022-12-19T08:17:53;16.90;;;4.30;;
62863;SDS011;48954;59.950;11.014;2022-12-19T08:20:30;19.70;;;5.90;;
62863;SDS011;48954;59.950;11.014;2022-12-19T08:23:06;23.50;;;7.40;;
62863;SDS011;48954;59.950;11.014;2022-12-19T08:25:47;17.90;;;5.80;;
62863;SDS011;48954;59.950;11.014;2022-12-19T08:28:16;24.60;;;7.40;;
62863;SDS011;48954;59.950;11.014;2022-12-19T08:30:50;19.70;;;7.50;;
62863;SDS011;48954;59.950;11.014;2022-12-19T08:33:19;25.20;;;6.30;;
62863;SDS011;48954;59.950;11.014;2022-12-19T08:35:57;27.80;;;8.80;;
62863;SDS011;48954;59.950;11.014;2022-12-19T08:38:43;20.60;;;6.20;;
62863;SDS011;48954;59.950;11.014;2022-12-19T08:41:20;15.20;;;4.00;;
62863;SDS011;48954;59.950;11.014;2022-12-19T08:44:23;16.30;;;5.40;;
62863;SDS011;48954;59.950;11.014;2022-12-19T08:46:57;21.90;;;7.40;;
62863;SDS011;48954;59.950;11.014;2022-12-19T08:49:39;20.00;;;6.50;;
62863;SDS011;48954;59.950;11.014;2022-12-19T08:52:07;14.20;;;4.70;;
62863;SDS011;48954;59.950;11.014;2022-12-19T08:54:48;28.10;;;7.80;;
62863;SDS011;48954;59.950;11.014;2022-12-19T08:57:21;25.40;;;7.70;;
62863;SDS011;48954;59.950;11.014;2022-12-19T09:00:05;19.50;;;5.70;;
62863;SDS011;48954;59.950;11.014;2022-12-19T09:02:43;26.10;;;6.90;;
62863;SDS011;48954;59.950;11.014;2022-12-19T09:05:23;18.50;;;5.80;;
62863;SDS011;48954;59.950;11.014;2022-12-19T09:08:04;27.50;;;8.20;;
62863;SDS011;48954;59.950;11.014;2022-12-19T09:10:45;32.20;;;7.90;;
62863;SDS011;48954;59.950;11.014;2022-12-19T09:13:16;16.40;;;4.70;;
62863;SDS011;48954;59.950;11.014;2022-12-19T09:15:48;13.80;;;4.50;;
62863;SDS011;48954;59.950;11.014;2022-12-19T09:18:21;32.60;;;8.50;;
62863;SDS011;48954;59.950;11.014;2022-12-19T09:23:50;15.20;;;4.90;;
62863;SDS011;48954;59.950;11.014;2022-12-19T09:26:32;6.10;;;2.50;;
62863;SDS011;48954;59.950;11.014;2022-12-19T09:29:15;27.80;;;6.20;;
62863;SDS011;48954;59.950;11.014;2022-12-19T09:31:57;24.20;;;7.60;;
62863;SDS011;48954;59.950;11.014;2022-12-19T09:34:39;15.90;;;5.10;;
62863;SDS011;48954;59.950;11.014;2022-12-19T09:37:19;15.80;;;5.00;;
62863;SDS011;48954;59.950;11.014;2022-12-19T09:40:21;15.50;;;4.50;;
62863;SDS011;48954;59.950;11.014;2022-12-19T09:43:09;28.00;;;7.30;;
62863;SDS011;48954;59.950;11.014;2022-12-19T09:48:55;22.70;;;7.20;;
62863;SDS011;48954;59.950;11.014;2022-12-19T09:51:37;14.10;;;4.40;;
62863;SDS011;48954;59.950;11.014;2022-12-19T09:54:23;24.70;;;7.10;;
62863;SDS011;48954;59.950;11.014;2022-12-19T09:58:11;21.90;;;6.80;;
62863;SDS011;48954;59.950;11.014;2022-12-19T10:01:04;17.60;;;5.40;;
62863;SDS011;48954;59.950;11.014;2022-12-19T10:03:39;18.50;;;6.70;;
62863;SDS011;48954;59.950;11.014;2022-12-19T10:06:24;26.60;;;8.30;;
62863;SDS011;48954;59.950;11.014;2022-12-19T10:08:51;22.60;;;7.40;;
62863;SDS011;48954;59.950;11.014;2022-12-19T10:11:26;27.10;;;8.90;;
62863;SDS011;48954;59.950;11.014;2022-12-19T10:17:22;27.10;;;8.00;;
62863;SDS011;48954;59.950;11.014;2022-12-19T10:20:16;21.90;;;6.30;;
62863;SDS011;48954;59.950;11.014;2022-12-19T10:31:22;18.20;;;5.20;;
62863;SDS011;48954;59.950;11.014;2022-12-19T10:36:49;19.40;;;6.40;;
62863;SDS011;48954;59.950;11.014;2022-12-19T10:45:01;30.60;;;9.30;;
62863;SDS011;48954;59.950;11.014;2022-12-19T10:47:34;29.90;;;9.20;;
62863;SDS011;48954;59.950;11.014;2022-12-19T10:50:01;21.00;;;6.60;;
62863;SDS011;48954;59.950;11.014;2022-12-19T10:55:20;25.20;;;7.10;;
62863;SDS011;48954;59.950;11.014;2022-12-19T11:03:36;20.30;;;6.10;;
62863;SDS011;48954;59.950;11.014;2022-12-19T11:06:05;15.20;;;5.00;;
62863;SDS011;48954;59.950;11.014;2022-12-19T11:08:32;24.60;;;6.60;;
62863;SDS011;48954;59.950;11.014;2022-12-19T11:16:01;23.70;;;7.00;;
62863;SDS011;48954;59.950;11.014;2022-12-19T11:18:45;33.10;;;8.70;;
62863;SDS011;48954;59.950;11.014;2022-12-19T11:21:29;33.10;;;8.50;;
62863;SDS011;48954;59.950;11.014;2022-12-19T11:26:26;22.10;;;6.60;;
62863;SDS011;48954;59.950;11.014;2022-12-19T11:35:24;32.90;;;8.90;;
62863;SDS011;48954;59.950;11.014;2022-12-19T11:37:53;27.00;;;9.30;;
62863;SDS011;48954;59.950;11.014;2022-12-19T11:40:32;18.50;;;6.40;;
62863;SDS011;48954;59.950;11.014;2022-12-19T11:43:11;20.40;;;6.90;;
62863;SDS011;48954;59.950;11.014;2022-12-19T11:45:51;22.70;;;7.80;;
62863;SDS011;48954;59.950;11.014;2022-12-19T11:54:24;35.70;;;10.50;;
62863;SDS011;48954;59.950;11.014;2022-12-19T11:56:55;26.20;;;9.00;;
62863;SDS011;48954;59.950;11.014;2022-12-19T12:08:11;23.50;;;6.90;;
62863;SDS011;48954;59.950;11.014;2022-12-19T12:10:51;26.60;;;7.30;;
62863;SDS011;48954;59.950;11.014;2022-12-19T12:16:43;23.90;;;7.00;;
62863;SDS011;48954;59.950;11.014;2022-12-19T12:19:35;20.70;;;6.50;;
62863;SDS011;48954;59.950;11.014;2022-12-19T12:30:59;17.20;;;6.40;;
62863;SDS011;48954;59.950;11.014;2022-12-19T12:44:58;29.60;;;8.60;;
62863;SDS011;48954;59.950;11.014;2022-12-19T12:47:28;26.00;;;8.80;;
62863;SDS011;48954;59.950;11.014;2022-12-19T12:55:03;23.30;;;7.40;;
62863;SDS011;48954;59.950;11.014;2022-12-19T12:57:37;34.20;;;11.80;;
62863;SDS011;48954;59.950;11.014;2022-12-19T13:00:17;24.80;;;7.00;;
62863;SDS011;48954;59.950;11.014;2022-12-19T13:07:57;37.90;;;10.70;;
62863;SDS011;48954;59.950;11.014;2022-12-19T13:10:25;33.80;;;10.40;;
62863;SDS011;48954;59.950;11.014;2022-12-19T13:12:58;38.00;;;12.60;;
62863;SDS011;48954;59.950;11.014;2022-12-19T13:15:45;36.10;;;11.40;;
62863;SDS011;48954;59.950;11.014;2022-12-19T13:18:29;39.30;;;12.20;;
62863;SDS011;48954;59.950;11.014;2022-12-19T13:20:59;22.50;;;7.40;;
62863;SDS011;48954;59.950;11.014;2022-12-19T13:25:54;30.70;;;9.10;;
62863;SDS011;48954;59.950;11.014;2022-12-19T13:35:55;33.00;;;10.70;;
62863;SDS011;48954;59.950;11.014;2022-12-19T13:38:22;27.80;;;9.20;;
62863;SDS011;48954;59.950;11.014;2022-12-19T13:41:02;38.00;;;12.40;;
62863;SDS011;48954;59.950;11.014;2022-12-19T13:43:38;19.00;;;7.70;;
62863;SDS011;48954;59.950;11.014;2022-12-19T13:49:19;40.10;;;12.80;;
62863;SDS011;48954;59.950;11.014;2022-12-19T13:51:55;29.30;;;9.40;;
62863;SDS011;48954;59.950;11.014;2022-12-19T13:54:24;27.70;;;8.70;;
62863;SDS011;48954;59.950;11.014;2022-12-19T13:56:52;23.80;;;8.10;;
62863;SDS011;48954;59.950;11.014;2022-12-19T13:59:21;31.80;;;10.70;;
62863;SDS011;48954;59.950;11.014;2022-12-19T14:01:51;21.10;;;8.40;;
62863;SDS011;48954;59.950;11.014;2022-12-19T14:06:58;31.80;;;9.30;;
62863;SDS011;48954;59.950;11.014;2022-12-19T14:09:34;38.50;;;12.90;;
62863;SDS011;48954;59.950;11.014;2022-12-19T14:12:06;36.90;;;10.90;;
62863;SDS011;48954;59.950;11.014;2022-12-19T14:14:49;33.90;;;10.30;;
62863;SDS011;48954;59.950;11.014;2022-12-19T14:17:17;31.20;;;9.70;;
62863;SDS011;48954;59.950;11.014;2022-12-19T14:19:48;33.90;;;11.20;;
62863;SDS011;48954;59.950;11.014;2022-12-19T14:22:21;41.10;;;13.10;;
62863;SDS011;48954;59.950;11.014;2022-12-19T14:25:01;36.10;;;10.40;;
62863;SDS011;48954;59.950;11.014;2022-12-19T14:27:33;35.60;;;12.80;;
62863;SDS011;48954;59.950;11.014;2022-12-19T14:30:04;23.20;;;7.60;;
62863;SDS011;48954;59.950;11.014;2022-12-19T14:32:53;29.80;;;10.50;;
62863;SDS011;48954;59.950;11.014;2022-12-19T14:35:22;31.20;;;11.70;;
62863;SDS011;48954;59.950;11.014;2022-12-19T14:38:01;27.00;;;8.80;;
62863;SDS011;48954;59.950;11.014;2022-12-19T14:40:31;36.60;;;12.50;;
62863;SDS011;48954;59.950;11.014;2022-12-19T14:43:00;19.30;;;7.10;;
62863;SDS011;48954;59.950;11.014;2022-12-19T14:51:02;42.30;;;13.20;;
62863;SDS011;48954;59.950;11.014;2022-12-19T14:53:29;23.10;;;8.60;;
62863;SDS011;48954;59.950;11.014;2022-12-19T14:56:02;43.10;;;13.80;;
62863;SDS011;48954;59.950;11.014;2022-12-19T14:58:34;25.90;;;10.10;;
62863;SDS011;48954;59.950;11.014;2022-12-19T15:01:04;17.70;;;8.20;;
62863;SDS011;48954;59.950;11.014;2022-12-19T15:03:55;21.80;;;9.00;;
62863;SDS011;48954;59.950;11.014;2022-12-19T15:06:26;37.10;;;12.60;;
62863;SDS011;48954;59.950;11.014;2022-12-19T15:09:02;28.70;;;11.30;;
62863;SDS011;48954;59.950;11.014;2022-12-19T15:11:33;36.40;;;11.90;;
62863;SDS011;48954;59.950;11.014;2022-12-19T15:14:07;24.10;;;8.50;;
62863;SDS011;48954;59.950;11.014;2022-12-19T15:16:33;28.40;;;9.40;;
62863;SDS011;48954;59.950;11.014;2022-12-19T15:19:00;29.90;;;10.50;;
62863;SDS011;48954;59.950;11.014;2022-12-19T15:21:29;32.90;;;11.90;;
62863;SDS011;48954;59.950;11.014;2022-12-19T15:23:56;24.40;;;9.70;;
62863;SDS011;48954;59.950;11.014;2022-12-19T15:26:27;25.70;;;9.20;;
62863;SDS011;48954;59.950;11.014;2022-12-19T15:28:54;28.70;;;10.20;;
62863;SDS011;48954;59.950;11.014;2022-12-19T15:34:21;25.10;;;10.40;;
62863;SDS011;48954;59.950;11.014;2022-12-19T15:36:50;29.90;;;12.20;;
62863;SDS011;48954;59.950;11.014;2022-12-19T15:39:17;29.80;;;11.30;;
62863;SDS011;48954;59.950;11.014;2022-12-19T15:41:46;41.70;;;17.20;;
62863;SDS011;48954;59.950;11.014;2022-12-19T15:44:16;30.40;;;13.10;;
62863;SDS011;48954;59.950;11.014;2022-12-19T15:46:47;36.10;;;14.60;;
62863;SDS011;48954;59.950;11.014;2022-12-19T15:49:17;44.40;;;16.80;;
62863;SDS011;48954;59.950;11.014;2022-12-19T15:51:46;35.50;;;14.10;;
62863;SDS011;48954;59.950;11.014;2022-12-19T15:54:13;44.80;;;17.50;;
62863;SDS011;48954;59.950;11.014;2022-12-19T15:56:41;24.30;;;9.30;;
62863;SDS011;48954;59.950;11.014;2022-12-19T16:01:42;34.70;;;12.50;;
62863;SDS011;48954;59.950;11.014;2022-12-19T16:04:10;29.10;;;11.80;;
62863;SDS011;48954;59.950;11.014;2022-12-19T16:06:37;54.50;;;18.60;;
62863;SDS011;48954;59.950;11.014;2022-12-19T16:09:23;29.30;;;11.60;;
62863;SDS011;48954;59.950;11.014;2022-12-19T16:11:52;39.70;;;15.00;;
62863;SDS011;48954;59.950;11.014;2022-12-19T16:14:20;36.50;;;12.90;;
62863;SDS011;48954;59.950;11.014;2022-12-19T16:16:49;29.00;;;11.80;;
62863;SDS011;48954;59.950;11.014;2022-12-19T16:19:22;35.20;;;14.70;;
62863;SDS011;48954;59.950;11.014;2022-12-19T16:21:48;27.60;;;11.20;;
62863;SDS011;48954;59.950;11.014;2022-12-19T16:24:15;44.40;;;16.90;;
62863;SDS011;48954;59.950;11.014;2022-12-19T16:26:42;17.20;;;8.10;;
62863;SDS011;48954;59.950;11.014;2022-12-19T16:29:24;38.70;;;14.70;;
62863;SDS011;48954;59.950;11.014;2022-12-19T16:31:53;27.30;;;9.60;;
62863;SDS011;48954;59.950;11.014;2022-12-19T16:34:20;41.20;;;16.40;;
62863;SDS011;48954;59.950;11.014;2022-12-19T16:36:48;32.80;;;13.20;;
62863;SDS011;48954;59.950;11.014;2022-12-19T16:39:17;43.20;;;15.70;;
62863;SDS011;48954;59.950;11.014;2022-12-19T16:41:44;34.10;;;13.90;;
62863;SDS011;48954;59.950;11.014;2022-12-19T16:44:17;34.00;;;13.50;;
62863;SDS011;48954;59.950;11.014;2022-12-19T16:46:46;37.50;;;14.90;;
62863;SDS011;48954;59.950;11.014;2022-12-19T16:49:14;30.30;;;11.00;;
62863;SDS011;48954;59.950;11.014;2022-12-19T16:51:43;40.20;;;15.80;;
62863;SDS011;48954;59.950;11.014;2022-12-19T16:54:11;31.50;;;11.60;;
62863;SDS011;48954;59.950;11.014;2022-12-19T16:56:39;25.60;;;9.90;;
62863;SDS011;48954;59.950;11.014;2022-12-19T16:59:42;36.80;;;14.10;;
62863;SDS011;48954;59.950;11.014;2022-12-19T17:02:14;39.50;;;15.00;;
62863;SDS011;48954;59.950;11.014;2022-12-19T17:04:48;38.50;;;14.80;;
62863;SDS011;48954;59.950;11.014;2022-12-19T17:07:15;27.20;;;11.90;;
62863;SDS011;48954;59.950;11.014;2022-12-19T17:09:41;32.70;;;12.90;;
62863;SDS011;48954;59.950;11.014;2022-12-19T17:12:13;27.90;;;12.10;;
62863;SDS011;48954;59.950;11.014;2022-12-19T17:14:44;23.00;;;10.60;;
62863;SDS011;48954;59.950;11.014;2022-12-19T17:17:12;43.90;;;16.70;;
62863;SDS011;48954;59.950;11.014;2022-12-19T17:19:40;24.60;;;9.90;;
62863;SDS011;48954;59.950;11.014;2022-12-19T17:22:10;34.90;;;12.90;;
62863;SDS011;48954;59.950;11.014;2022-12-19T17:24:37;32.70;;;14.20;;
62863;SDS011;48954;59.950;11.014;2022-12-19T17:27:04;36.00;;;13.90;;
62863;SDS011;48954;59.950;11.014;2022-12-19T17:29:31;29.90;;;11.20;;
62863;SDS011;48954;59.950;11.014;2022-12-19T17:31:58;54.20;;;18.80;;
62863;SDS011;48954;59.950;11.014;2022-12-19T17:34:25;40.30;;;15.90;;
62863;SDS011;48954;59.950;11.014;2022-12-19T17:36:58;27.50;;;12.50;;
62863;SDS011;48954;59.950;11.014;2022-12-19T17:39:27;38.70;;;15.10;;
62863;SDS011;48954;59.950;11.014;2022-12-19T17:41:57;45.60;;;18.50;;
62863;SDS011;48954;59.950;11.014;2022-12-19T17:44:25;51.70;;;18.60;;
62863;SDS011;48954;59.950;11.014;2022-12-19T17:46:51;44.50;;;16.90;;
62863;SDS011;48954;59.950;11.014;2022-12-19T17:49:28;49.70;;;19.80;;
62863;SDS011;48954;59.950;11.014;2022-12-19T17:51:56;44.60;;;19.30;;
62863;SDS011;48954;59.950;11.014;2022-12-19T17:54:25;36.50;;;13.50;;
62863;SDS011;48954;59.950;11.014;2022-12-19T17:56:52;27.20;;;11.30;;
62863;SDS011;48954;59.950;11.014;2022-12-19T17:59:19;30.30;;;13.40;;
62863;SDS011;48954;59.950;11.014;2022-12-19T18:01:45;55.30;;;22.40;;
62863;SDS011;48954;59.950;11.014;2022-12-19T18:04:12;41.40;;;17.00;;
62863;SDS011;48954;59.950;11.014;2022-12-19T18:06:40;28.10;;;13.40;;
62863;SDS011;48954;59.950;11.014;2022-12-19T18:09:23;41.80;;;18.60;;
62863;SDS011;48954;59.950;11.014;2022-12-19T18:11:52;33.70;;;15.10;;
62863;SDS011;48954;59.950;11.014;2022-12-19T18:14:18;34.90;;;13.90;;